Date,TemperatureHighF,TemperatureAvgF,TemperatureLowF,DewpointHighF,DewpointAvgF,DewpointLowF,HumidityHigh,HumidityAvg,HumidityLow,PressureMaxIn,PressureMinIn,WindSpeedMaxMPH,WindSpeedAvgMPH,GustSpeedMaxMPH,PrecipitationSumIn
2013-5-1,59.0,47.4,35.6,50.9,41.5,35.4,99,81,65,30.21,29.73,30,14,30,0.78
2013-5-2,41.2,37.0,32.7,36.6,33.1,28.1,99,87,66,30.34,30.17,30,12,30,1.74
2013-5-3,40.5,37.0,34.5,35.5,32.6,30.4,94,84,73,30.22,29.85,26,10,26,0.01
2013-5-4,51.4,41.2,34.0,47.2,39.9,33.0,99,95,84,29.97,29.78,22,10,22,0.14
2013-5-5,54.9,48.7,42.4,52.1,47.4,41.6,99,95,86,30.01,29.94,14,6,14,0.01
2013-5-6,74.8,59.4,48.7,57.9,52.1,48.5,99,79,46,30.01,29.91,12,5,12,0.00
2013-5-7,80.1,64.7,46.4,58.3,49.1,38.7,99,63,25,29.97,29.85,13,2,13,0.00
2013-5-8,73.9,62.8,56.5,61.7,55.7,48.4,99,78,58,29.90,29.78,10,3,10,0.07
2013-5-9,73.2,62.0,56.8,62.3,58.2,54.1,99,88,64,29.85,29.73,17,5,17,0.34
2013-5-10,72.9,58.9,49.3,54.3,49.1,42.1,99,73,38,29.95,29.83,17,7,17,0.00
2013-5-11,63.3,55.1,44.8,47.2,31.0,15.0,82,43,19,30.12,29.89,30,9,30,0.00
2013-5-12,68.9,53.1,33.3,33.0,22.8,7.4,79,36,10,30.16,30.01,11,3,11,0.00
2013-5-13,82.6,65.2,45.0,54.2,40.1,27.9,68,43,20,30.02,29.76,18,5,18,0.00
2013-5-14,99.7,79.6,57.0,62.5,51.4,31.6,95,47,10,29.76,29.54,24,7,24,0.00
2013-5-15,84.9,74.0,61.3,53.8,45.7,32.3,61,38,16,29.81,29.67,21,6,21,0.00
2013-5-16,88.7,73.8,62.4,69.7,60.7,48.0,98,66,38,29.79,29.65,18,3,18,0.00
2013-5-17,88.9,73.4,62.2,66.0,61.9,58.2,99,70,39,29.82,29.72,12,4,12,0.00
2013-5-18,87.6,75.3,60.3,66.8,63.5,60.0,99,69,45,29.82,29.61,15,5,15,0.00
2013-5-19,87.6,69.5,59.4,69.0,62.1,57.3,99,81,37,29.69,29.39,28,5,28,1.54
2013-5-20,77.2,67.0,57.6,62.8,58.7,53.2,99,77,48,29.59,29.44,18,6,18,0.01
2013-5-21,70.3,62.9,56.8,58.3,52.3,46.5,93,70,46,29.62,29.51,21,8,21,0.00
2013-5-22,61.7,56.0,52.2,55.4,52.4,50.5,99,88,70,29.84,29.60,14,5,14,0.00
2013-5-23,76.8,61.2,51.8,54.8,49.7,41.9,99,70,31,30.13,29.83,17,5,17,0.00
2013-5-24,76.5,63.5,49.6,55.1,47.8,44.3,84,59,37,30.21,29.97,15,5,15,0.00
2013-5-25,79.7,65.6,55.8,66.6,57.8,45.7,99,77,56,30.08,29.89,16,6,16,0.22
2013-5-26,87.3,68.4,59.4,70.7,64.3,59.1,99,88,57,29.95,29.77,22,6,22,0.01
2013-5-27,79.0,67.2,59.0,66.9,63.1,58.7,99,88,59,29.84,29.57,18,4,18,1.69
2013-5-28,86.0,70.9,63.1,72.0,66.4,62.0,99,87,57,29.65,29.47,24,2,24,0.18
2013-5-29,78.6,70.3,63.3,72.3,66.4,60.7,99,88,74,29.69,29.52,23,3,23,0.67
2013-5-30,75.9,66.8,58.1,67.1,63.0,57.4,99,88,65,29.59,29.47,24,4,24,0.24
2013-5-31,80.6,70.0,58.1,65.8,59.7,50.1,99,73,37,29.63,29.52,14,3,14,0.01